createdAt,value
2018-03-22T00:00:28.289Z,0
2018-03-22T00:01:30.116Z,0
2018-03-22T00:02:32.019Z,0
2018-03-22T00:03:33.850Z,0
2018-03-22T00:04:35.550Z,0
2018-03-22T00:05:37.482Z,0
2018-03-22T00:06:39.148Z,0
2018-03-22T00:07:40.872Z,0
2018-03-22T00:08:42.629Z,0
2018-03-22T00:09:44.095Z,0
2018-03-22T00:10:45.558Z,0
2018-03-22T00:11:47.057Z,0
2018-03-22T00:12:48.577Z,0
2018-03-22T00:13:50.310Z,0
2018-03-22T00:14:51.818Z,0
2018-03-22T00:15:53.626Z,0
2018-03-22T00:16:55.419Z,0
2018-03-22T00:17:57.179Z,0
2018-03-22T00:18:58.993Z,0
2018-03-22T00:20:00.760Z,0
2018-03-22T00:21:02.788Z,0
2018-03-22T00:22:04.487Z,0
2018-03-22T00:23:06.058Z,0
2018-03-22T00:24:07.882Z,0
2018-03-22T00:25:09.631Z,0
2018-03-22T00:26:11.592Z,0
2018-03-22T00:27:13.406Z,0
2018-03-22T00:28:15.404Z,0
2018-03-22T00:29:17.288Z,0
2018-03-22T00:30:19.052Z,0
2018-03-22T00:31:20.774Z,0
2018-03-22T00:32:22.332Z,0
2018-03-22T00:33:24.150Z,0
2018-03-22T00:34:25.653Z,0
2018-03-22T00:35:27.599Z,0
2018-03-22T00:36:29.231Z,0
2018-03-22T00:37:31.003Z,0
2018-03-22T00:38:32.631Z,0
2018-03-22T00:39:34.145Z,0
2018-03-22T00:40:36.000Z,0
2018-03-22T00:41:37.696Z,0
2018-03-22T00:42:39.505Z,0
2018-03-22T00:43:41.081Z,0
2018-03-22T00:44:42.965Z,0
2018-03-22T00:45:44.592Z,0
2018-03-22T00:46:46.341Z,0
2018-03-22T00:47:48.092Z,0
2018-03-22T00:48:49.810Z,0
2018-03-22T00:49:51.876Z,0
2018-03-22T00:50:53.550Z,0
2018-03-22T00:51:55.734Z,0
2018-03-22T00:52:57.330Z,0
2018-03-22T00:53:59.126Z,0
2018-03-22T00:55:00.635Z,0
2018-03-22T00:56:02.110Z,0
2018-03-22T00:57:03.935Z,0
2018-03-22T00:58:05.692Z,0
2018-03-22T00:59:07.510Z,0
2018-03-22T01:00:09.279Z,0
2018-03-22T01:01:10.903Z,0
2018-03-22T01:02:12.654Z,0
2018-03-22T01:03:14.429Z,0
2018-03-22T01:04:16.179Z,0
2018-03-22T01:05:17.920Z,0
2018-03-22T01:06:19.396Z,0
2018-03-22T01:07:21.412Z,0
2018-03-22T01:08:22.984Z,0
2018-03-22T01:09:24.493Z,0
2018-03-22T01:10:26.012Z,0
2018-03-22T01:11:27.495Z,0
2018-03-22T01:12:29.406Z,0
2018-03-22T01:13:31.432Z,0
2018-03-22T01:14:33.379Z,0
2018-03-22T01:15:35.172Z,0
2018-03-22T01:16:36.957Z,0
2018-03-22T01:17:39.116Z,0
2018-03-22T01:18:40.814Z,0
2018-03-22T01:19:42.385Z,0
2018-03-22T01:20:44.362Z,0
2018-03-22T01:21:46.026Z,0
2018-03-22T01:22:47.847Z,0
2018-03-22T01:23:49.598Z,0
2018-03-22T01:24:51.475Z,0
2018-03-22T01:25:53.577Z,0
2018-03-22T01:26:55.331Z,0
2018-03-22T01:27:57.382Z,0
2018-03-22T01:28:58.969Z,0
2018-03-22T01:30:00.746Z,0
2018-03-22T01:31:02.474Z,0
2018-03-22T01:32:04.276Z,0
2018-03-22T01:33:06.111Z,0
2018-03-22T01:34:07.654Z,0
2018-03-22T01:35:09.560Z,0
2018-03-22T01:36:11.326Z,0
2018-03-22T01:37:13.070Z,0
2018-03-22T01:38:14.854Z,0
2018-03-22T01:39:16.580Z,0
2018-03-22T01:40:18.337Z,0
2018-03-22T01:41:20.077Z,0
2018-03-22T01:42:21.585Z,0
2018-03-22T01:43:23.266Z,0
2018-03-22T01:44:25.188Z,0
2018-03-22T01:45:26.920Z,0
2018-03-22T01:46:28.449Z,0
2018-03-22T01:47:29.978Z,0
2018-03-22T01:48:31.717Z,0
2018-03-22T01:49:33.497Z,0
2018-03-22T01:50:35.281Z,0
2018-03-22T01:51:37.340Z,0
2018-03-22T01:52:38.908Z,0
2018-03-22T01:53:40.855Z,0
2018-03-22T01:54:42.679Z,0
2018-03-22T01:55:44.742Z,0
2018-03-22T01:56:46.485Z,0
2018-03-22T01:57:48.280Z,0
2018-03-22T01:58:49.824Z,0
2018-03-22T01:59:51.719Z,0
2018-03-22T02:00:53.465Z,0
2018-03-22T02:01:55.329Z,0
2018-03-22T02:02:56.920Z,0
2018-03-22T02:03:58.860Z,0
2018-03-22T02:05:01.045Z,0
2018-03-22T02:06:02.790Z,0
2018-03-22T02:07:04.820Z,0
2018-03-22T02:08:06.588Z,0
2018-03-22T02:09:08.337Z,0
2018-03-22T02:10:10.385Z,0
2018-03-22T02:11:11.729Z,0
2018-03-22T02:12:13.468Z,0
2018-03-22T02:13:15.409Z,0
2018-03-22T02:14:17.055Z,0
2018-03-22T02:15:18.986Z,0
2018-03-22T02:16:20.797Z,0
2018-03-22T02:17:22.561Z,0
2018-03-22T02:18:24.304Z,0
2018-03-22T02:19:25.876Z,0
2018-03-22T02:20:27.598Z,0
2018-03-22T02:21:29.351Z,0
2018-03-22T02:22:31.038Z,0
2018-03-22T02:23:32.911Z,0
2018-03-22T02:24:34.638Z,0
2018-03-22T02:25:36.772Z,0
2018-03-22T02:26:38.486Z,0
2018-03-22T02:27:40.223Z,0
2018-03-22T02:28:41.710Z,0
2018-03-22T02:29:43.441Z,0
2018-03-22T02:30:45.480Z,0
2018-03-22T02:31:47.297Z,0
2018-03-22T02:32:49.123Z,0
2018-03-22T02:33:51.052Z,0
2018-03-22T02:34:52.551Z,0
2018-03-22T02:35:54.187Z,0
2018-03-22T02:36:55.746Z,0
2018-03-22T02:37:57.232Z,0
2018-03-22T02:38:58.796Z,0
2018-03-22T02:40:00.554Z,0
2018-03-22T02:41:02.010Z,0
2018-03-22T02:42:03.800Z,0
2018-03-22T02:43:05.808Z,0
2018-03-22T02:44:07.267Z,0
2018-03-22T02:45:08.747Z,0
2018-03-22T02:46:10.499Z,0
2018-03-22T02:47:12.358Z,0
2018-03-22T02:48:13.887Z,0
2018-03-22T02:49:15.842Z,0
2018-03-22T02:50:17.659Z,0
2018-03-22T02:51:19.449Z,0
2018-03-22T02:52:21.110Z,0
2018-03-22T02:53:22.631Z,0
2018-03-22T02:54:24.124Z,0
2018-03-22T02:55:25.964Z,0
2018-03-22T02:56:27.925Z,0
2018-03-22T02:57:29.432Z,0
2018-03-22T02:58:31.210Z,0
2018-03-22T02:59:32.677Z,0
2018-03-22T03:00:34.202Z,0
2018-03-22T03:01:36.245Z,0
2018-03-22T03:02:38.102Z,0
2018-03-22T03:03:40.005Z,0
2018-03-22T03:04:41.621Z,0
2018-03-22T03:05:43.130Z,0
2018-03-22T03:06:44.725Z,0
2018-03-22T03:07:46.510Z,0
2018-03-22T03:08:48.325Z,0
2018-03-22T03:09:49.987Z,0
2018-03-22T03:10:51.451Z,0
2018-03-22T03:11:53.337Z,0
2018-03-22T03:12:55.056Z,0
2018-03-22T03:13:56.795Z,0
2018-03-22T03:14:58.877Z,0
2018-03-22T03:16:00.400Z,0
2018-03-22T03:17:01.914Z,0
2018-03-22T03:18:03.630Z,0
2018-03-22T03:19:05.702Z,0
2018-03-22T03:20:07.511Z,0
2018-03-22T03:21:09.412Z,0
2018-03-22T03:22:11.094Z,0
2018-03-22T03:23:12.749Z,0
2018-03-22T03:24:14.421Z,0
2018-03-22T03:25:16.172Z,0
2018-03-22T03:26:17.992Z,0
2018-03-22T03:27:19.592Z,0
2018-03-22T03:28:21.260Z,0
2018-03-22T03:29:23.047Z,0
2018-03-22T03:30:24.562Z,0
2018-03-22T03:31:26.004Z,0
2018-03-22T03:32:27.789Z,0
2018-03-22T03:33:29.491Z,0
2018-03-22T03:34:31.245Z,0
2018-03-22T03:35:33.031Z,0
2018-03-22T03:36:34.633Z,0
2018-03-22T03:37:36.177Z,0
2018-03-22T03:38:37.687Z,0
2018-03-22T03:39:39.133Z,0
2018-03-22T03:40:40.841Z,0
2018-03-22T03:41:42.670Z,0
2018-03-22T03:42:44.518Z,0
2018-03-22T03:43:46.263Z,0
2018-03-22T03:44:47.916Z,0
2018-03-22T03:45:49.617Z,0
2018-03-22T03:46:51.296Z,0
2018-03-22T03:47:52.819Z,0
2018-03-22T03:48:54.500Z,0
2018-03-22T03:49:56.184Z,0
2018-03-22T03:50:57.954Z,0
2018-03-22T03:51:59.418Z,0
2018-03-22T03:53:01.192Z,0
2018-03-22T03:54:02.978Z,0
2018-03-22T03:55:04.806Z,0
2018-03-22T03:56:06.842Z,0
2018-03-22T03:57:08.442Z,0
2018-03-22T03:58:10.346Z,0
2018-03-22T03:59:11.884Z,0
2018-03-22T04:00:13.376Z,0
2018-03-22T04:01:15.215Z,0
2018-03-22T04:02:16.936Z,0
2018-03-22T04:03:18.535Z,0
2018-03-22T04:04:20.089Z,0
2018-03-22T04:05:21.999Z,0
2018-03-22T04:06:23.750Z,0
2018-03-22T04:07:25.804Z,0
2018-03-22T04:08:27.583Z,0
2018-03-22T04:09:29.079Z,0
2018-03-22T04:10:30.878Z,0
2018-03-22T04:11:32.469Z,0
2018-03-22T04:12:34.946Z,0
2018-03-22T04:13:36.933Z,0
2018-03-22T04:14:38.728Z,0
2018-03-22T04:15:40.477Z,0
2018-03-22T04:16:42.425Z,0
2018-03-22T04:17:44.009Z,0
2018-03-22T04:18:45.487Z,0
2018-03-22T04:19:47.226Z,0
2018-03-22T04:20:49.124Z,0
2018-03-22T04:21:51.142Z,0
2018-03-22T04:22:53.018Z,0
2018-03-22T04:23:54.946Z,0
2018-03-22T04:24:56.605Z,0
2018-03-22T04:25:58.277Z,0
2018-03-22T04:27:00.011Z,0
2018-03-22T04:28:01.748Z,0
2018-03-22T04:29:03.454Z,0
2018-03-22T04:30:05.357Z,0
2018-03-22T04:31:07.099Z,0
2018-03-22T04:32:08.749Z,0
2018-03-22T04:33:10.490Z,0
2018-03-22T04:34:12.212Z,0
2018-03-22T04:35:14.215Z,0
2018-03-22T04:36:15.891Z,0
2018-03-22T04:37:17.426Z,0
2018-03-22T04:38:19.268Z,0
2018-03-22T04:39:20.985Z,0
2018-03-22T04:40:22.498Z,0
2018-03-22T04:41:24.176Z,0
2018-03-22T04:42:26.066Z,0
2018-03-22T04:43:27.867Z,0
2018-03-22T04:44:29.382Z,0
2018-03-22T04:45:31.239Z,0
2018-03-22T04:46:32.852Z,0
2018-03-22T04:47:34.565Z,0
2018-03-22T04:48:36.276Z,0
2018-03-22T04:49:37.827Z,0
2018-03-22T04:50:39.540Z,0
2018-03-22T04:51:41.240Z,0
2018-03-22T04:52:43.064Z,0
2018-03-22T04:53:44.726Z,0
2018-03-22T04:54:46.385Z,0
2018-03-22T04:55:48.186Z,0
2018-03-22T04:56:49.998Z,0
2018-03-22T04:57:52.032Z,0
2018-03-22T04:58:53.725Z,0
2018-03-22T04:59:55.463Z,0
2018-03-22T05:00:57.184Z,0
2018-03-22T05:01:59.159Z,0
2018-03-22T05:03:00.687Z,0
2018-03-22T05:04:02.186Z,4
2018-03-22T05:05:03.997Z,4
2018-03-22T05:06:05.862Z,4
2018-03-22T05:07:07.436Z,4
2018-03-22T05:08:09.262Z,4
2018-03-22T05:09:10.963Z,4
2018-03-22T05:10:12.573Z,4
2018-03-22T05:11:14.309Z,4
2018-03-22T05:12:15.760Z,8
2018-03-22T05:13:17.527Z,12
2018-03-22T05:14:19.548Z,12
2018-03-22T05:15:21.515Z,8
2018-03-22T05:16:23.277Z,8
2018-03-22T05:17:24.924Z,8
2018-03-22T05:18:26.693Z,12
2018-03-22T05:19:28.410Z,16
2018-03-22T05:20:30.122Z,24
2018-03-22T05:21:31.624Z,32
2018-03-22T05:22:33.803Z,36
2018-03-22T05:23:35.554Z,36
2018-03-22T05:24:36.991Z,36
2018-03-22T05:25:38.827Z,40
2018-03-22T05:26:40.315Z,44
2018-03-22T05:27:41.801Z,64
2018-03-22T05:28:43.424Z,80
2018-03-22T05:29:45.273Z,88
2018-03-22T05:30:47.225Z,76
2018-03-22T05:31:48.886Z,104
2018-03-22T05:32:50.650Z,108
2018-03-22T05:33:52.493Z,96
2018-03-22T05:34:54.175Z,88
2018-03-22T05:35:55.880Z,108
2018-03-22T05:36:57.584Z,160
2018-03-22T05:37:59.288Z,168
2018-03-22T05:39:01.004Z,196
2018-03-22T05:40:02.501Z,208
2018-03-22T05:41:04.153Z,228
2018-03-22T05:42:06.386Z,248
2018-03-22T05:43:07.991Z,244
2018-03-22T05:44:09.740Z,260
2018-03-22T05:45:11.532Z,276
2018-03-22T05:46:13.316Z,304
2018-03-22T05:47:14.842Z,300
2018-03-22T05:48:16.525Z,336
2018-03-22T05:49:18.242Z,376
2018-03-22T05:50:20.235Z,412
2018-03-22T05:51:21.791Z,428
2018-03-22T05:52:23.947Z,440
2018-03-22T05:53:25.411Z,452
2018-03-22T05:54:26.983Z,452
2018-03-22T05:55:28.505Z,436
2018-03-22T05:56:30.078Z,408
2018-03-22T05:57:31.568Z,388
2018-03-22T05:58:33.943Z,364
2018-03-22T05:59:35.720Z,328
2018-03-22T06:00:37.182Z,296
2018-03-22T06:01:38.641Z,280
2018-03-22T06:02:40.224Z,268
2018-03-22T06:03:42.273Z,264
2018-03-22T06:04:43.907Z,256
2018-03-22T06:05:45.556Z,268
2018-03-22T06:06:47.515Z,324
2018-03-22T06:07:49.343Z,396
2018-03-22T06:08:50.833Z,412
2018-03-22T06:09:52.303Z,472
2018-03-22T06:10:53.715Z,552
2018-03-22T06:11:55.104Z,656
2018-03-22T06:12:56.582Z,768
2018-03-22T06:13:57.989Z,872
2018-03-22T06:14:59.434Z,948
2018-03-22T06:16:00.885Z,972
2018-03-22T06:17:02.584Z,996
2018-03-22T06:18:03.994Z,1104
2018-03-22T06:19:05.448Z,1200
2018-03-22T06:20:06.923Z,1320
2018-03-22T06:21:08.428Z,1464
2018-03-22T06:22:09.819Z,1612
2018-03-22T06:23:11.279Z,1748
2018-03-22T06:24:12.741Z,1976
2018-03-22T06:25:14.172Z,2104
2018-03-22T06:26:15.615Z,2172
2018-03-22T06:27:17.175Z,2160
2018-03-22T06:28:18.901Z,2004
2018-03-22T06:29:20.681Z,1988
2018-03-22T06:30:22.451Z,2184
2018-03-22T06:31:24.401Z,2372
2018-03-22T06:32:25.787Z,2500
2018-03-22T06:33:27.200Z,2640
2018-03-22T06:34:28.707Z,2620
2018-03-22T06:35:30.153Z,2620
2018-03-22T06:36:31.641Z,2608
2018-03-22T06:37:33.102Z,2584
2018-03-22T06:38:34.539Z,2912
2018-03-22T06:39:36.033Z,3040
2018-03-22T06:40:37.457Z,3176
2018-03-22T06:41:39.011Z,3436
2018-03-22T06:42:40.456Z,4056
2018-03-22T06:43:42.331Z,4472
2018-03-22T06:44:43.815Z,4392
2018-03-22T06:45:45.640Z,3900
2018-03-22T06:46:47.124Z,3420
2018-03-22T06:47:48.668Z,2792
2018-03-22T06:48:50.138Z,2496
2018-03-22T06:49:51.642Z,2608
2018-03-22T06:50:53.164Z,2928
2018-03-22T06:51:54.651Z,3216
2018-03-22T06:52:56.272Z,4156
2018-03-22T06:53:58.062Z,4360
2018-03-22T06:54:59.543Z,3904
2018-03-22T06:56:00.935Z,3220
2018-03-22T06:57:02.336Z,2568
2018-03-22T06:58:03.759Z,2292
2018-03-22T06:59:05.537Z,2548
2018-03-22T07:00:06.978Z,2256
2018-03-22T07:01:08.383Z,2408
2018-03-22T07:02:10.045Z,2984
2018-03-22T07:03:11.526Z,2928
2018-03-22T07:04:13.035Z,2280
2018-03-22T07:05:14.516Z,1776
2018-03-22T07:06:15.959Z,1244
2018-03-22T07:07:17.444Z,1420
2018-03-22T07:08:18.849Z,1872
2018-03-22T07:09:20.513Z,2092
2018-03-22T07:10:22.200Z,1836
2018-03-22T07:11:24.155Z,1984
2018-03-22T07:12:25.831Z,2320
2018-03-22T07:13:27.691Z,2408
2018-03-22T07:14:29.581Z,2436
2018-03-22T07:15:31.245Z,2148
2018-03-22T07:16:32.684Z,1980
2018-03-22T07:17:34.111Z,2064
2018-03-22T07:18:35.548Z,2500
2018-03-22T07:19:37.235Z,3064
2018-03-22T07:20:38.653Z,2436
2018-03-22T07:21:40.257Z,2384
2018-03-22T07:22:41.675Z,2264
2018-03-22T07:23:43.193Z,1792
2018-03-22T07:24:44.700Z,1692
2018-03-22T07:25:46.386Z,1652
2018-03-22T07:26:47.793Z,1692
2018-03-22T07:27:49.523Z,1796
2018-03-22T07:28:50.993Z,1924
2018-03-22T07:29:52.691Z,2340
2018-03-22T07:30:54.127Z,2440
2018-03-22T07:31:55.837Z,2796
2018-03-22T07:32:57.784Z,3416
2018-03-22T07:33:59.180Z,3264
2018-03-22T07:35:00.870Z,3168
2018-03-22T07:36:02.563Z,2736
2018-03-22T07:37:03.964Z,2848
2018-03-22T07:38:05.411Z,2680
2018-03-22T07:39:07.366Z,2636
2018-03-22T07:40:09.091Z,2992
2018-03-22T07:41:10.564Z,3540
2018-03-22T07:42:12.031Z,3476
2018-03-22T07:43:13.798Z,4040
2018-03-22T07:44:15.252Z,3952
2018-03-22T07:45:16.898Z,4296
2018-03-22T07:46:18.425Z,4240
2018-03-22T07:47:20.228Z,4028
2018-03-22T07:48:22.053Z,3648
2018-03-22T07:49:23.596Z,3496
2018-03-22T07:50:25.278Z,3328
2018-03-22T07:51:26.709Z,3160
2018-03-22T07:52:28.335Z,3216
2018-03-22T07:53:30.165Z,2864
2018-03-22T07:54:32.124Z,3604
2018-03-22T07:55:33.793Z,4328
2018-03-22T07:56:35.243Z,4204
2018-03-22T07:57:36.703Z,4168
2018-03-22T07:58:38.144Z,3976
2018-03-22T07:59:39.643Z,4184
2018-03-22T08:00:41.168Z,3516
2018-03-22T08:01:42.624Z,2768
2018-03-22T08:02:44.088Z,2332
2018-03-22T08:03:45.532Z,2384
2018-03-22T08:04:47.003Z,2576
2018-03-22T08:05:48.483Z,2556
2018-03-22T08:06:49.878Z,2956
2018-03-22T08:07:51.294Z,3460
2018-03-22T08:08:52.902Z,3980
2018-03-22T08:09:54.574Z,4064
2018-03-22T08:10:56.019Z,4056
2018-03-22T08:11:57.490Z,4156
2018-03-22T08:12:58.995Z,5540
2018-03-22T08:14:00.505Z,6060
2018-03-22T08:15:01.940Z,5832
2018-03-22T08:16:03.437Z,4892
2018-03-22T08:17:04.905Z,4648
2018-03-22T08:18:06.370Z,4276
2018-03-22T08:19:07.835Z,4488
2018-03-22T08:20:09.295Z,4308
2018-03-22T08:21:10.749Z,4660
2018-03-22T08:22:12.361Z,3920
2018-03-22T08:23:13.911Z,5324
2018-03-22T08:24:15.363Z,6044
2018-03-22T08:25:16.775Z,5400
2018-03-22T08:26:18.248Z,4836
2018-03-22T08:27:19.681Z,5800
2018-03-22T08:28:21.436Z,6572
2018-03-22T08:29:22.870Z,6560
2018-03-22T08:30:24.462Z,6292
2018-03-22T08:31:25.981Z,4980
2018-03-22T08:32:27.404Z,4044
2018-03-22T08:33:28.864Z,5484
2018-03-22T08:34:30.303Z,6384
2018-03-22T08:35:31.761Z,5932
2018-03-22T08:36:33.165Z,6448
2018-03-22T08:37:34.595Z,5172
2018-03-22T08:38:36.213Z,4748
2018-03-22T08:39:37.949Z,4940
2018-03-22T08:40:39.393Z,5068
2018-03-22T08:41:40.848Z,5280
2018-03-22T08:42:42.337Z,5600
2018-03-22T08:43:43.851Z,5768
2018-03-22T08:44:45.315Z,7452
2018-03-22T08:45:46.929Z,8748
2018-03-22T08:46:48.655Z,8864
2018-03-22T08:47:50.175Z,6476
2018-03-22T08:48:51.639Z,4928
2018-03-22T08:49:53.085Z,4648
2018-03-22T08:50:54.564Z,4788
2018-03-22T08:51:56.020Z,5540
2018-03-22T08:52:57.502Z,6468
2018-03-22T08:53:58.982Z,7488
2018-03-22T08:55:00.394Z,5024
2018-03-22T08:56:01.991Z,4620
2018-03-22T08:57:03.409Z,5144
2018-03-22T08:58:04.877Z,4864
2018-03-22T08:59:06.336Z,5684
2018-03-22T09:00:07.746Z,5220
2018-03-22T09:01:09.230Z,6548
2018-03-22T09:02:10.679Z,6892
2018-03-22T09:03:12.137Z,6900
2018-03-22T09:04:13.841Z,7516
2018-03-22T09:05:15.480Z,7408
2018-03-22T09:06:16.911Z,7536
2018-03-22T09:07:18.396Z,6700
2018-03-22T09:08:19.829Z,6516
2018-03-22T09:09:21.276Z,6816
2018-03-22T09:10:22.718Z,5904
2018-03-22T09:11:24.178Z,5544
2018-03-22T09:12:25.659Z,5076
2018-03-22T09:13:27.085Z,5176
2018-03-22T09:14:28.586Z,5648
2018-03-22T09:15:30.255Z,5912
2018-03-22T09:16:31.690Z,7204
2018-03-22T09:17:33.164Z,7400
2018-03-22T09:18:34.572Z,9316
2018-03-22T09:19:36.070Z,9472
2018-03-22T09:20:37.805Z,9184
2018-03-22T09:21:39.596Z,6528
2018-03-22T09:22:41.061Z,4956
2018-03-22T09:23:42.524Z,4200
2018-03-22T09:24:43.985Z,3716
2018-03-22T09:25:45.453Z,3216
2018-03-22T09:26:46.911Z,3624
2018-03-22T09:27:48.386Z,3868
2018-03-22T09:28:49.842Z,4636
2018-03-22T09:29:51.260Z,5324
2018-03-22T09:30:52.729Z,6228
2018-03-22T09:31:54.157Z,6072
2018-03-22T09:32:55.627Z,7244
2018-03-22T09:33:57.117Z,7540
2018-03-22T09:34:58.627Z,8240
2018-03-22T09:36:00.047Z,7348
2018-03-22T09:37:01.465Z,6740
2018-03-22T09:38:02.922Z,6400
2018-03-22T09:39:04.417Z,4912
2018-03-22T09:40:05.902Z,4592
2018-03-22T09:41:07.355Z,4556
2018-03-22T09:42:08.864Z,4624
2018-03-22T09:43:10.386Z,6228
2018-03-22T09:44:11.931Z,7432
2018-03-22T09:45:13.371Z,7088
2018-03-22T09:46:14.888Z,8472
2018-03-22T09:47:16.343Z,10772
2018-03-22T09:48:17.806Z,12964
2018-03-22T09:49:19.289Z,13256
2018-03-22T09:50:20.670Z,10376
2018-03-22T09:51:22.121Z,9268
2018-03-22T09:52:23.621Z,7904
2018-03-22T09:53:25.074Z,6380
2018-03-22T09:54:26.577Z,6864
2018-03-22T09:55:28.029Z,6704
2018-03-22T09:56:29.480Z,6600
2018-03-22T09:57:30.915Z,6520
2018-03-22T09:58:32.337Z,6024
2018-03-22T09:59:33.796Z,5340
2018-03-22T10:00:35.295Z,5200
2018-03-22T10:01:36.734Z,4524
2018-03-22T10:02:38.194Z,4668
2018-03-22T10:03:39.609Z,5608
2018-03-22T10:04:41.069Z,5136
2018-03-22T10:05:42.480Z,6104
2018-03-22T10:06:43.944Z,4756
2018-03-22T10:07:45.352Z,5224
2018-03-22T10:08:46.822Z,4716
2018-03-22T10:09:48.283Z,4488
2018-03-22T10:10:49.759Z,5072
2018-03-22T10:11:51.161Z,5284
2018-03-22T10:12:52.649Z,5940
2018-03-22T10:13:54.189Z,5684
2018-03-22T10:14:55.608Z,6144
2018-03-22T10:15:57.088Z,6212
2018-03-22T10:16:58.551Z,5536
2018-03-22T10:18:00.000Z,4580
2018-03-22T10:19:01.435Z,5364
2018-03-22T10:20:02.935Z,6236
2018-03-22T10:21:04.329Z,7588
2018-03-22T10:22:05.777Z,7176
2018-03-22T10:23:07.251Z,7740
2018-03-22T10:24:08.737Z,8372
2018-03-22T10:25:10.170Z,9328
2018-03-22T10:26:11.669Z,7836
2018-03-22T10:27:13.094Z,7904
2018-03-22T10:28:15.100Z,7728
2018-03-22T10:29:16.523Z,7680
2018-03-22T10:30:18.002Z,7924
2018-03-22T10:31:19.459Z,9092
2018-03-22T10:32:20.882Z,10368
2018-03-22T10:33:22.308Z,8984
2018-03-22T10:34:23.806Z,7892
2018-03-22T10:35:25.244Z,7320
2018-03-22T10:36:26.684Z,7252
2018-03-22T10:37:28.129Z,7440
2018-03-22T10:38:29.586Z,6624
2018-03-22T10:39:31.013Z,7012
2018-03-22T10:40:32.480Z,6644
2018-03-22T10:41:34.007Z,6436
2018-03-22T10:42:35.448Z,6484
2018-03-22T10:43:36.940Z,6372
2018-03-22T10:44:38.383Z,5496
2018-03-22T10:45:39.830Z,4768
2018-03-22T10:46:41.307Z,4804
2018-03-22T10:47:42.718Z,4620
2018-03-22T10:48:44.128Z,5044
2018-03-22T10:49:45.583Z,5700
2018-03-22T10:50:47.078Z,5700
2018-03-22T10:51:48.465Z,5528
2018-03-22T10:52:49.929Z,6124
2018-03-22T10:53:51.392Z,5836
2018-03-22T10:54:52.852Z,5916
2018-03-22T10:55:54.375Z,6420
2018-03-22T10:56:56.015Z,5768
2018-03-22T10:57:57.787Z,5292
2018-03-22T10:58:59.561Z,4820
2018-03-22T11:00:00.983Z,4232
2018-03-22T11:01:02.410Z,4092
2018-03-22T11:02:03.929Z,3728
2018-03-22T11:03:05.564Z,3664
2018-03-22T11:04:07.200Z,4232
2018-03-22T11:05:08.919Z,5020
2018-03-22T11:06:10.387Z,5300
2018-03-22T11:07:11.839Z,5468
2018-03-22T11:08:13.311Z,4976
2018-03-22T11:09:14.753Z,4732
2018-03-22T11:10:16.236Z,5500
2018-03-22T11:11:17.674Z,5060
2018-03-22T11:12:19.228Z,5348
2018-03-22T11:13:20.690Z,5100
2018-03-22T11:14:22.189Z,5780
2018-03-22T11:15:23.715Z,6428
2018-03-22T11:16:25.223Z,5320
2018-03-22T11:17:26.652Z,6604
2018-03-22T11:18:28.122Z,6136
2018-03-22T11:19:29.655Z,5820
2018-03-22T11:20:31.146Z,6444
2018-03-22T11:21:32.663Z,7136
2018-03-22T11:22:34.315Z,6032
2018-03-22T11:23:35.738Z,5208
2018-03-22T11:24:37.243Z,6316
2018-03-22T11:25:38.745Z,6640
2018-03-22T11:26:40.221Z,6732
2018-03-22T11:27:41.637Z,8044
2018-03-22T11:28:43.105Z,6672
2018-03-22T11:29:45.034Z,7408
2018-03-22T11:30:46.661Z,7248
2018-03-22T11:31:48.608Z,6656
2018-03-22T11:32:50.396Z,5532
2018-03-22T11:33:52.069Z,5448
2018-03-22T11:34:53.726Z,6188
2018-03-22T11:35:55.142Z,6432
2018-03-22T11:36:56.611Z,5784
2018-03-22T11:37:58.025Z,7148
2018-03-22T11:38:59.480Z,7300
2018-03-22T11:40:00.916Z,5620
2018-03-22T11:41:02.376Z,5512
2018-03-22T11:42:03.904Z,6712
2018-03-22T11:43:05.418Z,7660
2018-03-22T11:44:06.849Z,6788
2018-03-22T11:45:08.318Z,6304
2018-03-22T11:46:09.776Z,7844
2018-03-22T11:47:11.496Z,10036
2018-03-22T11:48:13.259Z,9436
2018-03-22T11:49:14.687Z,9632
2018-03-22T11:50:16.137Z,11236
2018-03-22T11:51:17.589Z,12200
2018-03-22T11:52:19.028Z,8620
2018-03-22T11:53:20.477Z,7944
2018-03-22T11:54:21.944Z,8416
2018-03-22T11:55:23.428Z,10380
2018-03-22T11:56:24.873Z,10288
2018-03-22T11:57:26.583Z,7852
2018-03-22T11:58:28.255Z,8664
2018-03-22T11:59:29.712Z,11484
2018-03-22T12:00:31.196Z,13432
2018-03-22T12:01:32.634Z,13356
2018-03-22T12:02:34.124Z,11956
2018-03-22T12:03:35.594Z,11892
2018-03-22T12:04:37.037Z,8752
2018-03-22T12:05:38.520Z,8132
2018-03-22T12:06:39.987Z,6764
2018-03-22T12:07:41.498Z,5824
2018-03-22T12:08:42.977Z,6892
2018-03-22T12:09:44.456Z,10664
2018-03-22T12:10:45.897Z,8880
2018-03-22T12:11:47.333Z,8996
2018-03-22T12:12:48.752Z,7952
2018-03-22T12:13:50.155Z,8832
2018-03-22T12:14:51.655Z,7780
2018-03-22T12:15:53.086Z,7420
2018-03-22T12:16:54.684Z,7244
2018-03-22T12:17:56.140Z,7088
2018-03-22T12:18:57.632Z,6704
2018-03-22T12:19:59.096Z,6972
2018-03-22T12:21:00.529Z,7376
2018-03-22T12:22:02.002Z,6468
2018-03-22T12:23:03.432Z,5772
2018-03-22T12:24:04.886Z,6788
2018-03-22T12:25:06.289Z,6632
2018-03-22T12:26:07.746Z,5464
2018-03-22T12:27:09.224Z,5768
2018-03-22T12:28:10.603Z,5672
2018-03-22T12:29:12.100Z,5284
2018-03-22T12:30:13.490Z,6324
2018-03-22T12:31:14.970Z,5068
2018-03-22T12:32:16.408Z,5088
2018-03-22T12:33:17.882Z,5244
2018-03-22T12:34:19.574Z,5744
2018-03-22T12:35:21.249Z,5480
2018-03-22T12:36:22.707Z,5220
2018-03-22T12:37:24.217Z,5688
2018-03-22T12:38:25.710Z,7908
2018-03-22T12:39:27.188Z,8680
2018-03-22T12:40:28.691Z,9596
2018-03-22T12:41:30.082Z,9032
2018-03-22T12:42:31.671Z,8308
2018-03-22T12:43:33.415Z,8036
2018-03-22T12:44:34.822Z,7236
2018-03-22T12:45:36.231Z,10900
2018-03-22T12:46:37.645Z,10608
2018-03-22T12:47:39.132Z,10976
2018-03-22T12:48:40.565Z,8680
2018-03-22T12:49:42.004Z,7528
2018-03-22T12:50:43.442Z,8680
2018-03-22T12:51:44.905Z,6044
2018-03-22T12:52:46.345Z,4392
2018-03-22T12:53:47.800Z,5024
2018-03-22T12:54:49.230Z,4388
2018-03-22T12:55:50.697Z,4512
2018-03-22T12:56:52.152Z,4180
2018-03-22T12:57:53.620Z,4388
2018-03-22T12:58:55.092Z,4844
2018-03-22T12:59:56.493Z,5496
2018-03-22T13:00:57.924Z,4968
2018-03-22T13:01:59.405Z,4552
2018-03-22T13:03:00.879Z,5532
2018-03-22T13:04:02.333Z,4948
2018-03-22T13:05:03.755Z,6020
2018-03-22T13:06:05.191Z,6248
2018-03-22T13:07:06.653Z,5932
2018-03-22T13:08:08.118Z,5492
2018-03-22T13:09:09.615Z,5556
2018-03-22T13:10:11.080Z,5232
2018-03-22T13:11:12.557Z,5540
2018-03-22T13:12:14.243Z,5168
2018-03-22T13:13:16.001Z,4732
2018-03-22T13:14:17.489Z,4800
2018-03-22T13:15:18.946Z,4844
2018-03-22T13:16:20.423Z,4772
2018-03-22T13:17:21.909Z,4480
2018-03-22T13:18:23.369Z,4160
2018-03-22T13:19:24.824Z,4320
2018-03-22T13:20:26.261Z,4128
2018-03-22T13:21:27.675Z,4612
2018-03-22T13:22:29.182Z,4680
2018-03-22T13:23:30.696Z,4660
2018-03-22T13:24:32.130Z,4892
2018-03-22T13:25:33.595Z,4580
2018-03-22T13:26:35.060Z,4044
2018-03-22T13:27:36.528Z,3592
2018-03-22T13:28:37.977Z,3640
2018-03-22T13:29:39.685Z,3648
2018-03-22T13:30:41.127Z,3392
2018-03-22T13:31:42.542Z,3060
2018-03-22T13:32:44.047Z,2828
2018-03-22T13:33:45.526Z,3132
2018-03-22T13:34:47.185Z,3432
2018-03-22T13:35:48.935Z,3480
2018-03-22T13:36:50.364Z,4104
2018-03-22T13:37:51.751Z,4320
2018-03-22T13:38:53.362Z,4304
2018-03-22T13:39:55.063Z,4240
2018-03-22T13:40:56.778Z,4024
2018-03-22T13:41:58.294Z,4148
2018-03-22T13:42:59.750Z,4736
2018-03-22T13:44:01.175Z,4688
2018-03-22T13:45:02.600Z,4076
2018-03-22T13:46:04.147Z,3992
2018-03-22T13:47:05.688Z,3956
2018-03-22T13:48:07.508Z,3684
2018-03-22T13:49:08.933Z,3880
2018-03-22T13:50:10.396Z,5236
2018-03-22T13:51:11.783Z,6568
2018-03-22T13:52:13.205Z,6428
2018-03-22T13:53:14.684Z,6340
2018-03-22T13:54:16.148Z,5640
2018-03-22T13:55:17.589Z,4836
2018-03-22T13:56:19.055Z,4160
2018-03-22T13:57:20.494Z,5208
2018-03-22T13:58:21.905Z,5396
2018-03-22T13:59:23.390Z,4164
2018-03-22T14:00:24.943Z,3500
2018-03-22T14:01:26.481Z,3756
2018-03-22T14:02:28.249Z,4472
2018-03-22T14:03:29.671Z,4856
2018-03-22T14:04:31.138Z,5340
2018-03-22T14:05:32.588Z,5708
2018-03-22T14:06:34.105Z,4852
2018-03-22T14:07:35.700Z,4972
2018-03-22T14:08:37.433Z,4488
2018-03-22T14:09:39.113Z,4940
2018-03-22T14:10:40.574Z,5424
2018-03-22T14:11:42.040Z,5312
2018-03-22T14:12:43.528Z,5868
2018-03-22T14:13:44.949Z,5528